RJOO/ITM METAR and TAF weather

Enter ICAO airport designator
Station Type Date Time Source
RJOO METAR 2023/02/05 12:00 UTC NOAA

RJOO 051200Z AUTO 30003KT 9999 NCD 05/M01 Q1023


Station Type Date Time Source
RJOO Decoded METAR 2023/02/05 12:00 UTC NOAA

Osaka International Airport, Japan (RJOO) 34-47N 135-27E 15M
Feb 05, 2023 - 07:00 AM EST / 2023.02.05 1200 UTC
Wind: from the WNW (300 degrees) at 3 MPH (3 KT):0
Visibility: greater than 7 mile(s):0
Temperature: 41 F (5 C)
Dew Point: 30 F (-1 C)
Relative Humidity: 65%
Pressure (altimeter): 30.21 in. Hg (1023 hPa)
ob: RJOO 051200Z AUTO 30003KT 9999 NCD 05/M01 Q1023
cycle: 12

Station Type Date Time Source
RJOO TAF 2023/02/05 12:30 UTC NOAA

TAF RJOO 051105Z 0512/0618 32005KT 9999 FEW030
BECMG 0600/0603 22005KT
BECMG 0606/0609 32005KT

Example: see airport list